sensor_id;sensor_type;location;lat;lon;timestamp;temperature;humidity
41058;DHT22;66768;48.884;2.258;2023-07-31T00:00:04;20.90;99.90
41058;DHT22;66768;48.884;2.258;2023-07-31T00:02:31;20.80;99.90
41058;DHT22;66768;48.884;2.258;2023-07-31T00:04:58;20.80;99.90
41058;DHT22;66768;48.884;2.258;2023-07-31T00:07:25;20.80;99.90
41058;DHT22;66768;48.884;2.258;2023-07-31T00:09:53;20.80;99.90
41058;DHT22;66768;48.884;2.258;2023-07-31T00:12:22;20.80;99.90
41058;DHT22;66768;48.884;2.258;2023-07-31T00:14:49;20.80;99.90
41058;DHT22;66768;48.884;2.258;2023-07-31T00:17:17;20.80;99.90
41058;DHT22;66768;48.884;2.258;2023-07-31T00:19:44;20.70;99.90
41058;DHT22;66768;48.884;2.258;2023-07-31T00:22:11;20.70;99.90
41058;DHT22;66768;48.884;2.258;2023-07-31T00:24:38;20.80;99.90
41058;DHT22;66768;48.884;2.258;2023-07-31T00:27:06;20.80;99.90
41058;DHT22;66768;48.884;2.258;2023-07-31T00:29:33;20.80;99.90
41058;DHT22;66768;48.884;2.258;2023-07-31T00:32:00;20.80;99.90
41058;DHT22;66768;48.884;2.258;2023-07-31T00:34:27;20.80;99.90
41058;DHT22;66768;48.884;2.258;2023-07-31T00:36:54;20.80;99.90
41058;DHT22;66768;48.884;2.258;2023-07-31T00:39:21;20.80;99.90
41058;DHT22;66768;48.884;2.258;2023-07-31T00:41:47;20.80;99.90
41058;DHT22;66768;48.884;2.258;2023-07-31T00:44:16;20.80;99.90
41058;DHT22;66768;48.884;2.258;2023-07-31T00:46:42;20.80;99.90
41058;DHT22;66768;48.884;2.258;2023-07-31T00:49:10;20.80;99.90
41058;DHT22;66768;48.884;2.258;2023-07-31T00:51:37;20.80;99.90
41058;DHT22;66768;48.884;2.258;2023-07-31T00:54:04;20.80;99.90
41058;DHT22;66768;48.884;2.258;2023-07-31T00:56:32;20.70;99.90
41058;DHT22;66768;48.884;2.258;2023-07-31T00:59:00;20.70;99.90
41058;DHT22;66768;48.884;2.258;2023-07-31T01:01:28;20.70;99.90
41058;DHT22;66768;48.884;2.258;2023-07-31T01:03:55;20.70;99.90
41058;DHT22;66768;48.884;2.258;2023-07-31T01:06:30;20.70;99.90
41058;DHT22;66768;48.884;2.258;2023-07-31T01:09:02;20.70;99.90
41058;DHT22;66768;48.884;2.258;2023-07-31T01:11:31;20.70;99.90
41058;DHT22;66768;48.884;2.258;2023-07-31T01:13:59;20.60;99.90
41058;DHT22;66768;48.884;2.258;2023-07-31T01:16:28;20.70;99.90
41058;DHT22;66768;48.884;2.258;2023-07-31T01:18:55;20.70;99.90
41058;DHT22;66768;48.884;2.258;2023-07-31T01:21:40;20.70;99.90
41058;DHT22;66768;48.884;2.258;2023-07-31T01:24:21;20.70;99.90
41058;DHT22;66768;48.884;2.258;2023-07-31T01:26:55;20.70;99.90
41058;DHT22;66768;48.884;2.258;2023-07-31T01:29:29;20.70;99.90
41058;DHT22;66768;48.884;2.258;2023-07-31T01:31:59;20.70;99.90
41058;DHT22;66768;48.884;2.258;2023-07-31T01:34:28;20.70;99.90
41058;DHT22;66768;48.884;2.258;2023-07-31T01:36:56;20.70;99.90
41058;DHT22;66768;48.884;2.258;2023-07-31T01:39:23;20.60;99.90
41058;DHT22;66768;48.884;2.258;2023-07-31T01:41:51;20.70;99.90
41058;DHT22;66768;48.884;2.258;2023-07-31T01:44:18;20.60;99.90
41058;DHT22;66768;48.884;2.258;2023-07-31T01:46:45;20.60;99.90
41058;DHT22;66768;48.884;2.258;2023-07-31T01:49:12;20.50;99.90
41058;DHT22;66768;48.884;2.258;2023-07-31T01:51:38;20.60;99.90
41058;DHT22;66768;48.884;2.258;2023-07-31T01:54:05;20.50;99.90
41058;DHT22;66768;48.884;2.258;2023-07-31T01:56:32;20.50;99.90
41058;DHT22;66768;48.884;2.258;2023-07-31T01:59:00;20.50;99.90
41058;DHT22;66768;48.884;2.258;2023-07-31T02:01:27;20.40;99.90
41058;DHT22;66768;48.884;2.258;2023-07-31T02:03:54;20.50;99.90
41058;DHT22;66768;48.884;2.258;2023-07-31T02:06:21;20.50;99.90
41058;DHT22;66768;48.884;2.258;2023-07-31T02:08:48;20.50;99.90
41058;DHT22;66768;48.884;2.258;2023-07-31T02:11:15;20.50;99.90
41058;DHT22;66768;48.884;2.258;2023-07-31T02:13:42;20.40;99.90
41058;DHT22;66768;48.884;2.258;2023-07-31T02:16:10;20.40;99.90
41058;DHT22;66768;48.884;2.258;2023-07-31T02:18:37;20.40;99.90
41058;DHT22;66768;48.884;2.258;2023-07-31T02:21:04;20.40;99.90
41058;DHT22;66768;48.884;2.258;2023-07-31T02:23:31;20.40;99.90
41058;DHT22;66768;48.884;2.258;2023-07-31T02:25:58;20.40;99.90
41058;DHT22;66768;48.884;2.258;2023-07-31T02:28:25;20.40;99.90
41058;DHT22;66768;48.884;2.258;2023-07-31T02:30:52;20.40;99.90
41058;DHT22;66768;48.884;2.258;2023-07-31T02:33:20;20.50;99.90
41058;DHT22;66768;48.884;2.258;2023-07-31T02:35:47;20.50;99.90
41058;DHT22;66768;48.884;2.258;2023-07-31T02:38:13;20.50;99.90
41058;DHT22;66768;48.884;2.258;2023-07-31T02:40:40;20.40;99.90
41058;DHT22;66768;48.884;2.258;2023-07-31T02:43:07;20.50;99.90
41058;DHT22;66768;48.884;2.258;2023-07-31T02:45:35;20.50;99.90
41058;DHT22;66768;48.884;2.258;2023-07-31T02:48:02;20.50;99.90
41058;DHT22;66768;48.884;2.258;2023-07-31T02:50:30;20.40;99.90
41058;DHT22;66768;48.884;2.258;2023-07-31T02:52:57;20.40;99.90
41058;DHT22;66768;48.884;2.258;2023-07-31T02:55:24;20.40;99.90
41058;DHT22;66768;48.884;2.258;2023-07-31T02:57:51;20.40;99.90
41058;DHT22;66768;48.884;2.258;2023-07-31T03:00:18;20.40;99.90
41058;DHT22;66768;48.884;2.258;2023-07-31T03:02:45;20.40;99.90
41058;DHT22;66768;48.884;2.258;2023-07-31T03:05:12;20.40;99.90
41058;DHT22;66768;48.884;2.258;2023-07-31T03:07:40;20.40;99.90
41058;DHT22;66768;48.884;2.258;2023-07-31T03:10:08;20.40;99.90
41058;DHT22;66768;48.884;2.258;2023-07-31T03:12:35;20.40;99.90
41058;DHT22;66768;48.884;2.258;2023-07-31T03:15:02;20.40;99.90
41058;DHT22;66768;48.884;2.258;2023-07-31T03:17:29;20.30;99.90
41058;DHT22;66768;48.884;2.258;2023-07-31T03:19:55;20.30;99.90
41058;DHT22;66768;48.884;2.258;2023-07-31T03:22:22;20.30;99.90
41058;DHT22;66768;48.884;2.258;2023-07-31T03:24:50;20.30;99.90
41058;DHT22;66768;48.884;2.258;2023-07-31T03:27:18;20.20;99.90
41058;DHT22;66768;48.884;2.258;2023-07-31T03:29:45;20.30;99.90
41058;DHT22;66768;48.884;2.258;2023-07-31T03:32:12;20.30;99.90
41058;DHT22;66768;48.884;2.258;2023-07-31T03:34:39;20.20;99.90
41058;DHT22;66768;48.884;2.258;2023-07-31T03:37:05;20.20;99.90
41058;DHT22;66768;48.884;2.258;2023-07-31T03:39:34;20.10;99.90
41058;DHT22;66768;48.884;2.258;2023-07-31T03:42:03;20.20;99.90
41058;DHT22;66768;48.884;2.258;2023-07-31T03:44:30;20.20;99.90
41058;DHT22;66768;48.884;2.258;2023-07-31T03:46:57;20.20;99.90
41058;DHT22;66768;48.884;2.258;2023-07-31T03:49:23;20.20;99.90
41058;DHT22;66768;48.884;2.258;2023-07-31T03:51:50;20.20;99.90
41058;DHT22;66768;48.884;2.258;2023-07-31T03:54:17;20.20;99.90
41058;DHT22;66768;48.884;2.258;2023-07-31T03:56:44;20.20;99.90
41058;DHT22;66768;48.884;2.258;2023-07-31T03:59:12;20.20;99.90
41058;DHT22;66768;48.884;2.258;2023-07-31T04:01:39;20.20;99.90
41058;DHT22;66768;48.884;2.258;2023-07-31T04:04:06;20.10;99.90
41058;DHT22;66768;48.884;2.258;2023-07-31T04:06:33;20.10;99.90
41058;DHT22;66768;48.884;2.258;2023-07-31T04:08:59;20.00;99.90
41058;DHT22;66768;48.884;2.258;2023-07-31T04:11:26;20.00;99.90
41058;DHT22;66768;48.884;2.258;2023-07-31T04:13:53;20.00;99.90
41058;DHT22;66768;48.884;2.258;2023-07-31T04:16:21;20.10;99.90
41058;DHT22;66768;48.884;2.258;2023-07-31T04:18:48;19.90;99.90
41058;DHT22;66768;48.884;2.258;2023-07-31T04:21:15;19.90;99.90
41058;DHT22;66768;48.884;2.258;2023-07-31T04:23:43;19.90;99.90
41058;DHT22;66768;48.884;2.258;2023-07-31T04:26:10;20.00;99.90
41058;DHT22;66768;48.884;2.258;2023-07-31T04:28:37;20.00;99.90
41058;DHT22;66768;48.884;2.258;2023-07-31T04:31:03;20.00;99.90
41058;DHT22;66768;48.884;2.258;2023-07-31T04:33:32;20.00;99.90
41058;DHT22;66768;48.884;2.258;2023-07-31T04:35:59;19.90;99.90
41058;DHT22;66768;48.884;2.258;2023-07-31T04:38:26;19.90;99.90
41058;DHT22;66768;48.884;2.258;2023-07-31T04:40:53;19.90;99.90
41058;DHT22;66768;48.884;2.258;2023-07-31T04:43:19;19.90;99.90
41058;DHT22;66768;48.884;2.258;2023-07-31T04:45:46;19.90;99.90
41058;DHT22;66768;48.884;2.258;2023-07-31T04:48:15;19.90;99.90
41058;DHT22;66768;48.884;2.258;2023-07-31T04:50:43;19.90;99.90
41058;DHT22;66768;48.884;2.258;2023-07-31T04:53:10;19.90;99.90
41058;DHT22;66768;48.884;2.258;2023-07-31T04:55:37;19.90;99.90
41058;DHT22;66768;48.884;2.258;2023-07-31T04:58:04;19.90;99.90
41058;DHT22;66768;48.884;2.258;2023-07-31T05:00:31;19.80;99.90
41058;DHT22;66768;48.884;2.258;2023-07-31T05:02:58;19.80;99.90
41058;DHT22;66768;48.884;2.258;2023-07-31T05:05:25;19.80;99.90
41058;DHT22;66768;48.884;2.258;2023-07-31T05:07:53;19.80;99.90
41058;DHT22;66768;48.884;2.258;2023-07-31T05:10:20;19.80;99.90
41058;DHT22;66768;48.884;2.258;2023-07-31T05:12:47;19.80;99.90
41058;DHT22;66768;48.884;2.258;2023-07-31T05:15:14;19.90;99.90
41058;DHT22;66768;48.884;2.258;2023-07-31T05:17:41;19.80;99.90
41058;DHT22;66768;48.884;2.258;2023-07-31T05:20:08;19.80;99.90
41058;DHT22;66768;48.884;2.258;2023-07-31T05:22:36;19.80;99.90
41058;DHT22;66768;48.884;2.258;2023-07-31T05:25:05;19.80;99.90
41058;DHT22;66768;48.884;2.258;2023-07-31T05:27:32;19.80;99.90
41058;DHT22;66768;48.884;2.258;2023-07-31T05:29:59;19.80;99.90
41058;DHT22;66768;48.884;2.258;2023-07-31T05:32:26;19.80;99.90
41058;DHT22;66768;48.884;2.258;2023-07-31T05:34:53;19.80;99.90
41058;DHT22;66768;48.884;2.258;2023-07-31T05:37:20;19.80;99.90
41058;DHT22;66768;48.884;2.258;2023-07-31T05:39:47;19.90;99.90
41058;DHT22;66768;48.884;2.258;2023-07-31T05:42:15;19.90;99.90
41058;DHT22;66768;48.884;2.258;2023-07-31T05:44:42;19.90;99.90
41058;DHT22;66768;48.884;2.258;2023-07-31T05:47:09;19.90;99.90
41058;DHT22;66768;48.884;2.258;2023-07-31T05:49:36;19.90;99.90
41058;DHT22;66768;48.884;2.258;2023-07-31T05:52:04;19.90;99.90
41058;DHT22;66768;48.884;2.258;2023-07-31T05:54:32;19.90;99.90
41058;DHT22;66768;48.884;2.258;2023-07-31T05:56:59;19.90;99.90
41058;DHT22;66768;48.884;2.258;2023-07-31T05:59:27;19.90;99.90
41058;DHT22;66768;48.884;2.258;2023-07-31T06:01:56;19.90;99.90
41058;DHT22;66768;48.884;2.258;2023-07-31T06:04:23;20.00;99.90
41058;DHT22;66768;48.884;2.258;2023-07-31T06:06:51;20.00;99.90
41058;DHT22;66768;48.884;2.258;2023-07-31T06:09:18;20.00;99.90
41058;DHT22;66768;48.884;2.258;2023-07-31T06:11:45;20.00;99.90
41058;DHT22;66768;48.884;2.258;2023-07-31T06:14:12;20.00;99.90
41058;DHT22;66768;48.884;2.258;2023-07-31T06:16:41;20.10;99.90
41058;DHT22;66768;48.884;2.258;2023-07-31T06:19:09;20.10;99.90
41058;DHT22;66768;48.884;2.258;2023-07-31T06:21:36;20.10;99.90
41058;DHT22;66768;48.884;2.258;2023-07-31T06:24:04;20.10;99.90
41058;DHT22;66768;48.884;2.258;2023-07-31T06:26:31;20.10;99.90
41058;DHT22;66768;48.884;2.258;2023-07-31T06:28:58;20.10;99.90
41058;DHT22;66768;48.884;2.258;2023-07-31T06:31:25;20.20;99.90
41058;DHT22;66768;48.884;2.258;2023-07-31T06:33:54;20.20;99.90
41058;DHT22;66768;48.884;2.258;2023-07-31T06:36:21;20.20;99.90
41058;DHT22;66768;48.884;2.258;2023-07-31T06:38:48;20.20;99.90
41058;DHT22;66768;48.884;2.258;2023-07-31T06:41:15;20.20;99.90
41058;DHT22;66768;48.884;2.258;2023-07-31T06:43:42;20.20;99.90
41058;DHT22;66768;48.884;2.258;2023-07-31T06:46:09;20.20;99.90
41058;DHT22;66768;48.884;2.258;2023-07-31T06:48:36;20.20;99.90
41058;DHT22;66768;48.884;2.258;2023-07-31T06:51:04;20.20;99.90
41058;DHT22;66768;48.884;2.258;2023-07-31T06:53:31;20.20;99.90
41058;DHT22;66768;48.884;2.258;2023-07-31T06:55:58;20.20;99.90
41058;DHT22;66768;48.884;2.258;2023-07-31T06:58:25;20.20;99.90
41058;DHT22;66768;48.884;2.258;2023-07-31T07:00:52;20.10;99.90
41058;DHT22;66768;48.884;2.258;2023-07-31T07:03:19;20.20;99.90
41058;DHT22;66768;48.884;2.258;2023-07-31T07:05:46;20.20;99.90
41058;DHT22;66768;48.884;2.258;2023-07-31T07:08:14;20.20;99.90
41058;DHT22;66768;48.884;2.258;2023-07-31T07:10:42;20.20;99.90
41058;DHT22;66768;48.884;2.258;2023-07-31T07:13:09;20.30;99.90
41058;DHT22;66768;48.884;2.258;2023-07-31T07:15:38;20.30;99.90
41058;DHT22;66768;48.884;2.258;2023-07-31T07:18:04;20.30;99.90
41058;DHT22;66768;48.884;2.258;2023-07-31T07:20:31;20.40;99.90
41058;DHT22;66768;48.884;2.258;2023-07-31T07:22:58;20.40;99.90
41058;DHT22;66768;48.884;2.258;2023-07-31T07:25:27;20.40;99.90
41058;DHT22;66768;48.884;2.258;2023-07-31T07:27:54;20.50;99.90
41058;DHT22;66768;48.884;2.258;2023-07-31T07:30:20;20.50;99.90
41058;DHT22;66768;48.884;2.258;2023-07-31T07:32:49;20.60;99.90
41058;DHT22;66768;48.884;2.258;2023-07-31T07:35:16;20.70;99.90
41058;DHT22;66768;48.884;2.258;2023-07-31T07:37:43;20.60;99.90
41058;DHT22;66768;48.884;2.258;2023-07-31T07:40:10;20.60;99.90
41058;DHT22;66768;48.884;2.258;2023-07-31T07:42:38;20.80;99.90
41058;DHT22;66768;48.884;2.258;2023-07-31T07:45:06;20.80;99.90
41058;DHT22;66768;48.884;2.258;2023-07-31T07:47:33;20.80;99.90
41058;DHT22;66768;48.884;2.258;2023-07-31T07:50:00;20.80;99.90
41058;DHT22;66768;48.884;2.258;2023-07-31T07:52:28;20.80;99.90
41058;DHT22;66768;48.884;2.258;2023-07-31T07:54:55;20.80;99.90
41058;DHT22;66768;48.884;2.258;2023-07-31T07:57:22;20.90;99.90
41058;DHT22;66768;48.884;2.258;2023-07-31T07:59:51;20.90;99.90
41058;DHT22;66768;48.884;2.258;2023-07-31T08:02:18;20.90;99.90
41058;DHT22;66768;48.884;2.258;2023-07-31T08:04:45;20.90;99.90
41058;DHT22;66768;48.884;2.258;2023-07-31T08:07:12;20.90;99.90
41058;DHT22;66768;48.884;2.258;2023-07-31T08:09:39;20.90;99.90
41058;DHT22;66768;48.884;2.258;2023-07-31T08:12:06;21.00;99.90
41058;DHT22;66768;48.884;2.258;2023-07-31T08:14:33;21.00;99.90
41058;DHT22;66768;48.884;2.258;2023-07-31T08:17:03;20.90;99.90
41058;DHT22;66768;48.884;2.258;2023-07-31T08:19:30;21.10;99.90
41058;DHT22;66768;48.884;2.258;2023-07-31T08:21:57;21.30;99.90
41058;DHT22;66768;48.884;2.258;2023-07-31T08:24:23;21.40;99.90
41058;DHT22;66768;48.884;2.258;2023-07-31T08:26:50;21.60;99.90
41058;DHT22;66768;48.884;2.258;2023-07-31T08:29:17;21.60;99.90
41058;DHT22;66768;48.884;2.258;2023-07-31T08:31:44;21.70;99.90
41058;DHT22;66768;48.884;2.258;2023-07-31T08:34:13;21.60;99.90
41058;DHT22;66768;48.884;2.258;2023-07-31T08:36:39;21.50;99.90
41058;DHT22;66768;48.884;2.258;2023-07-31T08:39:07;21.40;99.90
41058;DHT22;66768;48.884;2.258;2023-07-31T08:41:37;21.40;99.90
41058;DHT22;66768;48.884;2.258;2023-07-31T08:44:06;21.40;99.90
41058;DHT22;66768;48.884;2.258;2023-07-31T08:46:34;21.40;99.90
41058;DHT22;66768;48.884;2.258;2023-07-31T08:49:02;21.50;99.90
41058;DHT22;66768;48.884;2.258;2023-07-31T08:51:34;21.40;99.90
41058;DHT22;66768;48.884;2.258;2023-07-31T08:54:01;21.30;99.90
41058;DHT22;66768;48.884;2.258;2023-07-31T08:56:30;21.40;99.90
41058;DHT22;66768;48.884;2.258;2023-07-31T08:58:59;21.40;99.90
41058;DHT22;66768;48.884;2.258;2023-07-31T09:01:30;21.50;99.90
41058;DHT22;66768;48.884;2.258;2023-07-31T09:03:59;21.50;99.90
41058;DHT22;66768;48.884;2.258;2023-07-31T09:06:28;21.40;99.90
41058;DHT22;66768;48.884;2.258;2023-07-31T09:08:58;21.40;99.90
41058;DHT22;66768;48.884;2.258;2023-07-31T09:11:25;21.50;99.90
41058;DHT22;66768;48.884;2.258;2023-07-31T09:13:53;21.50;99.90
41058;DHT22;66768;48.884;2.258;2023-07-31T09:16:27;21.60;99.90
41058;DHT22;66768;48.884;2.258;2023-07-31T09:18:56;21.70;99.90
41058;DHT22;66768;48.884;2.258;2023-07-31T09:21:24;21.70;99.90
41058;DHT22;66768;48.884;2.258;2023-07-31T09:23:53;21.70;99.90
41058;DHT22;66768;48.884;2.258;2023-07-31T09:26:40;21.50;99.90
41058;DHT22;66768;48.884;2.258;2023-07-31T09:29:18;21.50;99.90
41058;DHT22;66768;48.884;2.258;2023-07-31T09:31:45;21.50;99.90
41058;DHT22;66768;48.884;2.258;2023-07-31T09:34:12;21.60;99.90
41058;DHT22;66768;48.884;2.258;2023-07-31T09:36:40;21.50;99.90
41058;DHT22;66768;48.884;2.258;2023-07-31T09:39:09;21.60;99.90
41058;DHT22;66768;48.884;2.258;2023-07-31T09:41:39;21.50;99.90
41058;DHT22;66768;48.884;2.258;2023-07-31T09:44:06;21.50;99.90
41058;DHT22;66768;48.884;2.258;2023-07-31T09:46:35;21.60;99.90
41058;DHT22;66768;48.884;2.258;2023-07-31T09:49:08;21.60;99.90
41058;DHT22;66768;48.884;2.258;2023-07-31T09:51:36;21.60;99.90
41058;DHT22;66768;48.884;2.258;2023-07-31T09:54:09;21.70;99.90
41058;DHT22;66768;48.884;2.258;2023-07-31T09:56:42;21.70;99.90
41058;DHT22;66768;48.884;2.258;2023-07-31T09:59:12;21.80;99.90
41058;DHT22;66768;48.884;2.258;2023-07-31T10:01:40;21.80;99.90
41058;DHT22;66768;48.884;2.258;2023-07-31T10:04:08;21.60;99.90
41058;DHT22;66768;48.884;2.258;2023-07-31T10:06:36;21.60;99.90
41058;DHT22;66768;48.884;2.258;2023-07-31T10:09:06;21.60;99.90
41058;DHT22;66768;48.884;2.258;2023-07-31T10:11:41;21.60;99.90
41058;DHT22;66768;48.884;2.258;2023-07-31T10:14:09;21.50;99.90
41058;DHT22;66768;48.884;2.258;2023-07-31T10:16:38;21.50;99.90
41058;DHT22;66768;48.884;2.258;2023-07-31T10:19:06;21.40;99.90
41058;DHT22;66768;48.884;2.258;2023-07-31T10:21:34;21.30;99.90
41058;DHT22;66768;48.884;2.258;2023-07-31T10:24:03;21.30;99.90
41058;DHT22;66768;48.884;2.258;2023-07-31T10:26:32;21.30;99.90
41058;DHT22;66768;48.884;2.258;2023-07-31T10:29:01;21.30;99.90
41058;DHT22;66768;48.884;2.258;2023-07-31T10:31:28;21.20;99.90
41058;DHT22;66768;48.884;2.258;2023-07-31T10:33:57;21.20;99.90
41058;DHT22;66768;48.884;2.258;2023-07-31T10:36:24;21.10;99.90
41058;DHT22;66768;48.884;2.258;2023-07-31T10:38:52;21.20;99.90
41058;DHT22;66768;48.884;2.258;2023-07-31T10:41:19;21.10;99.90
41058;DHT22;66768;48.884;2.258;2023-07-31T10:43:46;21.00;99.90
41058;DHT22;66768;48.884;2.258;2023-07-31T10:46:29;21.00;99.90
41058;DHT22;66768;48.884;2.258;2023-07-31T10:48:59;21.00;99.90
41058;DHT22;66768;48.884;2.258;2023-07-31T10:51:32;21.00;99.90
41058;DHT22;66768;48.884;2.258;2023-07-31T10:54:10;21.00;99.90
41058;DHT22;66768;48.884;2.258;2023-07-31T10:56:38;20.90;99.90
41058;DHT22;66768;48.884;2.258;2023-07-31T10:59:05;21.00;99.90
41058;DHT22;66768;48.884;2.258;2023-07-31T11:01:53;21.20;99.90
41058;DHT22;66768;48.884;2.258;2023-07-31T11:04:24;21.20;99.90
41058;DHT22;66768;48.884;2.258;2023-07-31T11:06:58;21.30;99.90
41058;DHT22;66768;48.884;2.258;2023-07-31T11:09:28;21.30;99.90
41058;DHT22;66768;48.884;2.258;2023-07-31T11:11:57;21.30;99.90
41058;DHT22;66768;48.884;2.258;2023-07-31T11:14:24;21.20;99.90
41058;DHT22;66768;48.884;2.258;2023-07-31T11:16:52;21.00;99.90
41058;DHT22;66768;48.884;2.258;2023-07-31T11:19:22;20.90;99.90
41058;DHT22;66768;48.884;2.258;2023-07-31T11:21:50;20.80;99.90
41058;DHT22;66768;48.884;2.258;2023-07-31T11:24:18;20.80;99.90
41058;DHT22;66768;48.884;2.258;2023-07-31T11:26:49;20.80;99.90
41058;DHT22;66768;48.884;2.258;2023-07-31T11:29:16;20.70;99.90
41058;DHT22;66768;48.884;2.258;2023-07-31T11:31:44;20.70;99.90
41058;DHT22;66768;48.884;2.258;2023-07-31T11:34:13;20.70;99.90
41058;DHT22;66768;48.884;2.258;2023-07-31T11:36:40;20.70;99.90
41058;DHT22;66768;48.884;2.258;2023-07-31T11:39:08;20.70;99.90
41058;DHT22;66768;48.884;2.258;2023-07-31T11:41:35;20.80;99.90
41058;DHT22;66768;48.884;2.258;2023-07-31T11:44:02;20.70;99.90
41058;DHT22;66768;48.884;2.258;2023-07-31T11:46:30;20.70;99.90
41058;DHT22;66768;48.884;2.258;2023-07-31T11:48:59;20.80;99.90
41058;DHT22;66768;48.884;2.258;2023-07-31T11:51:28;20.70;99.90
41058;DHT22;66768;48.884;2.258;2023-07-31T11:53:57;20.70;99.90
41058;DHT22;66768;48.884;2.258;2023-07-31T11:56:26;20.80;99.90
41058;DHT22;66768;48.884;2.258;2023-07-31T11:58:58;20.90;99.90
41058;DHT22;66768;48.884;2.258;2023-07-31T12:01:26;21.00;99.90
41058;DHT22;66768;48.884;2.258;2023-07-31T12:03:54;21.10;99.90
41058;DHT22;66768;48.884;2.258;2023-07-31T12:06:21;21.10;99.90
41058;DHT22;66768;48.884;2.258;2023-07-31T12:08:50;21.20;99.90
41058;DHT22;66768;48.884;2.258;2023-07-31T12:11:16;21.10;99.90
41058;DHT22;66768;48.884;2.258;2023-07-31T12:13:44;21.10;99.90
41058;DHT22;66768;48.884;2.258;2023-07-31T12:16:11;21.10;99.90
41058;DHT22;66768;48.884;2.258;2023-07-31T12:18:38;21.10;99.90
41058;DHT22;66768;48.884;2.258;2023-07-31T12:21:06;21.00;99.90
41058;DHT22;66768;48.884;2.258;2023-07-31T12:23:35;21.00;99.90
41058;DHT22;66768;48.884;2.258;2023-07-31T12:26:05;21.00;99.90
41058;DHT22;66768;48.884;2.258;2023-07-31T12:28:35;21.00;99.90
41058;DHT22;66768;48.884;2.258;2023-07-31T12:31:04;21.00;99.90
41058;DHT22;66768;48.884;2.258;2023-07-31T12:33:32;21.00;99.90
41058;DHT22;66768;48.884;2.258;2023-07-31T12:36:00;20.90;99.90
41058;DHT22;66768;48.884;2.258;2023-07-31T12:38:28;20.90;99.90
41058;DHT22;66768;48.884;2.258;2023-07-31T12:40:55;20.90;99.90
41058;DHT22;66768;48.884;2.258;2023-07-31T12:43:25;20.90;99.90
41058;DHT22;66768;48.884;2.258;2023-07-31T12:45:54;20.90;99.90
41058;DHT22;66768;48.884;2.258;2023-07-31T12:48:22;20.90;99.90
41058;DHT22;66768;48.884;2.258;2023-07-31T12:50:48;20.90;99.90
41058;DHT22;66768;48.884;2.258;2023-07-31T12:53:16;21.00;99.90
41058;DHT22;66768;48.884;2.258;2023-07-31T12:55:43;21.00;99.90
41058;DHT22;66768;48.884;2.258;2023-07-31T12:58:10;21.00;99.90
41058;DHT22;66768;48.884;2.258;2023-07-31T13:00:38;21.10;99.90
41058;DHT22;66768;48.884;2.258;2023-07-31T13:03:05;21.10;99.90
41058;DHT22;66768;48.884;2.258;2023-07-31T13:05:32;21.10;99.90
41058;DHT22;66768;48.884;2.258;2023-07-31T13:07:59;21.10;99.90
41058;DHT22;66768;48.884;2.258;2023-07-31T13:10:27;21.10;99.90
41058;DHT22;66768;48.884;2.258;2023-07-31T13:12:55;21.10;99.90
41058;DHT22;66768;48.884;2.258;2023-07-31T13:15:22;21.10;99.90
41058;DHT22;66768;48.884;2.258;2023-07-31T13:17:50;21.20;99.90
41058;DHT22;66768;48.884;2.258;2023-07-31T13:20:17;21.20;99.90
41058;DHT22;66768;48.884;2.258;2023-07-31T13:22:45;21.20;99.90
41058;DHT22;66768;48.884;2.258;2023-07-31T13:25:12;21.00;99.90
41058;DHT22;66768;48.884;2.258;2023-07-31T13:27:41;21.20;99.90
41058;DHT22;66768;48.884;2.258;2023-07-31T13:30:08;21.20;99.90
41058;DHT22;66768;48.884;2.258;2023-07-31T13:32:35;21.20;99.90
41058;DHT22;66768;48.884;2.258;2023-07-31T13:35:06;21.20;99.90
41058;DHT22;66768;48.884;2.258;2023-07-31T13:37:33;21.20;99.90
41058;DHT22;66768;48.884;2.258;2023-07-31T13:40:00;21.30;99.90
41058;DHT22;66768;48.884;2.258;2023-07-31T13:42:27;21.30;99.90
41058;DHT22;66768;48.884;2.258;2023-07-31T13:44:54;21.30;99.90
41058;DHT22;66768;48.884;2.258;2023-07-31T13:47:21;21.30;99.90
41058;DHT22;66768;48.884;2.258;2023-07-31T13:49:48;21.10;99.90
41058;DHT22;66768;48.884;2.258;2023-07-31T13:52:16;21.00;99.90
41058;DHT22;66768;48.884;2.258;2023-07-31T13:54:43;20.80;99.90
41058;DHT22;66768;48.884;2.258;2023-07-31T13:57:10;20.80;99.90
41058;DHT22;66768;48.884;2.258;2023-07-31T13:59:37;20.80;99.90
41058;DHT22;66768;48.884;2.258;2023-07-31T14:02:04;20.70;99.90
41058;DHT22;66768;48.884;2.258;2023-07-31T14:04:31;20.70;99.90
41058;DHT22;66768;48.884;2.258;2023-07-31T14:06:59;20.70;99.90
41058;DHT22;66768;48.884;2.258;2023-07-31T14:09:27;20.60;99.90
41058;DHT22;66768;48.884;2.258;2023-07-31T14:11:55;20.60;99.90
41058;DHT22;66768;48.884;2.258;2023-07-31T14:14:22;20.50;99.90
41058;DHT22;66768;48.884;2.258;2023-07-31T14:16:48;20.60;99.90
41058;DHT22;66768;48.884;2.258;2023-07-31T14:19:15;20.60;99.90
41058;DHT22;66768;48.884;2.258;2023-07-31T14:21:42;20.60;99.90
41058;DHT22;66768;48.884;2.258;2023-07-31T14:24:09;20.50;99.90
41058;DHT22;66768;48.884;2.258;2023-07-31T14:26:37;20.50;99.90
41058;DHT22;66768;48.884;2.258;2023-07-31T14:29:04;20.40;99.90
41058;DHT22;66768;48.884;2.258;2023-07-31T14:31:31;20.40;99.90
41058;DHT22;66768;48.884;2.258;2023-07-31T14:33:58;20.50;99.90
41058;DHT22;66768;48.884;2.258;2023-07-31T14:36:25;20.50;99.90
41058;DHT22;66768;48.884;2.258;2023-07-31T14:38:51;20.50;99.90
41058;DHT22;66768;48.884;2.258;2023-07-31T14:41:18;20.50;99.90
41058;DHT22;66768;48.884;2.258;2023-07-31T14:43:46;20.50;99.90
41058;DHT22;66768;48.884;2.258;2023-07-31T14:46:13;20.50;99.90
41058;DHT22;66768;48.884;2.258;2023-07-31T14:48:40;20.60;99.90
41058;DHT22;66768;48.884;2.258;2023-07-31T14:51:07;20.60;99.90
41058;DHT22;66768;48.884;2.258;2023-07-31T14:53:34;20.60;99.90
41058;DHT22;66768;48.884;2.258;2023-07-31T14:56:01;20.60;99.90
41058;DHT22;66768;48.884;2.258;2023-07-31T14:58:28;20.70;99.90
41058;DHT22;66768;48.884;2.258;2023-07-31T15:00:56;20.80;99.90
41058;DHT22;66768;48.884;2.258;2023-07-31T15:03:23;20.80;99.90
41058;DHT22;66768;48.884;2.258;2023-07-31T15:05:50;20.80;99.90
41058;DHT22;66768;48.884;2.258;2023-07-31T15:08:17;20.80;99.90
41058;DHT22;66768;48.884;2.258;2023-07-31T15:10:44;20.90;99.90
41058;DHT22;66768;48.884;2.258;2023-07-31T15:13:11;20.90;99.90
41058;DHT22;66768;48.884;2.258;2023-07-31T15:15:38;20.80;99.90
41058;DHT22;66768;48.884;2.258;2023-07-31T15:18:07;20.90;99.90
41058;DHT22;66768;48.884;2.258;2023-07-31T15:20:33;20.80;99.90
41058;DHT22;66768;48.884;2.258;2023-07-31T15:23:00;20.80;99.90
41058;DHT22;66768;48.884;2.258;2023-07-31T15:25:27;20.80;99.90
41058;DHT22;66768;48.884;2.258;2023-07-31T15:27:54;20.80;99.90
41058;DHT22;66768;48.884;2.258;2023-07-31T15:30:21;20.80;99.90
41058;DHT22;66768;48.884;2.258;2023-07-31T15:32:48;20.70;99.90